Time;durP1;ratioP1;P1;durP2;ratioP2;P2;SDS_P1;SDS_P2;PMS_P1;PMS_P2;Temp;Humidity;BMP_temperature;BMP_pressure;BME280_temperature;BME280_humidity;BME280_pressure;Samples;Min_cycle;Max_cycle;Signal;HPM_P1;HPM_P2
2022/05/16 00:00:01;;;;;;;11.50;6.15;;;;;;;8.93;59.73;100657.81;1643519;87;25659;-67
2022/05/16 00:02:27;;;;;;;12.93;6.67;;;;;;;8.90;59.64;100656.48;1643402;87;27504;-68
2022/05/16 00:04:54;;;;;;;11.75;6.37;;;;;;;8.87;59.92;100663.83;1642855;87;25765;-68
2022/05/16 00:07:21;;;;;;;12.63;6.17;;;;;;;8.84;59.77;100659.56;1643002;87;25615;-68
2022/05/16 00:09:48;;;;;;;13.98;6.25;;;;;;;8.82;59.97;100663.89;1642908;87;25621;-68
2022/05/16 00:12:16;;;;;;;9.45;6.08;;;;;;;8.82;60.10;100663.06;1643002;87;25499;-68
2022/05/16 00:14:45;;;;;;;11.45;5.72;;;;;;;8.81;60.03;100666.88;1642975;87;27310;-70
2022/05/16 00:17:15;;;;;;;16.20;6.00;;;;;;;8.77;60.51;100668.80;1643143;87;25423;-69
2022/05/16 00:19:42;;;;;;;8.75;5.47;;;;;;;8.90;60.21;100705.59;1643054;87;25539;-68
2022/05/16 00:22:10;;;;;;;10.32;5.83;;;;;;;8.73;60.35;100670.44;1642897;87;25663;-68
2022/05/16 00:24:42;;;;;;;10.05;5.05;;;;;;;8.73;60.46;100669.09;1642966;87;25490;-69
2022/05/16 00:27:10;;;;;;;11.00;5.53;;;;;;;8.73;60.93;100675.04;1643001;87;27437;-67
2022/05/16 00:29:39;;;;;;;9.03;5.40;;;;;;;8.71;60.84;100675.33;1642891;87;25419;-68
2022/05/16 00:32:07;;;;;;;8.38;5.17;;;;;;;8.70;60.69;100680.48;1643085;87;30032;-68
2022/05/16 00:34:34;;;;;;;10.03;5.37;;;;;;;8.70;60.96;100679.12;1642873;87;25624;-68
2022/05/16 00:37:00;;;;;;;10.43;4.95;;;;;;;8.69;61.01;100676.72;1643045;87;25584;-68
2022/05/16 00:39:27;;;;;;;8.48;5.28;;;;;;;8.66;60.81;100674.03;1642941;87;27347;-68
2022/05/16 00:41:53;;;;;;;10.82;5.50;;;;;;;8.67;60.69;100684.30;1642897;87;25638;-68
2022/05/16 00:44:21;;;;;;;11.93;5.25;;;;;;;8.64;61.06;100680.27;1642957;87;25637;-67
2022/05/16 00:46:50;;;;;;;11.08;5.12;;;;;;;8.62;60.69;100678.95;1642916;87;26305;-69
2022/05/16 00:49:27;;;;;;;15.15;5.78;;;;;;;8.58;60.94;100680.87;1643099;87;25482;-68
2022/05/16 00:52:02;;;;;;;12.15;5.03;;;;;;;8.56;60.67;100684.92;1642992;87;27305;-69
2022/05/16 00:54:43;;;;;;;8.85;5.15;;;;;;;8.53;60.48;100683.63;1642916;87;25510;-69
2022/05/16 00:57:14;;;;;;;9.23;5.25;;;;;;;8.49;61.09;100682.56;1642988;87;25460;-69
2022/05/16 00:59:55;;;;;;;7.65;4.50;;;;;;;8.44;61.28;100683.97;1643040;87;25699;-68
2022/05/16 01:05:09;;;;;;;10.30;5.12;;;;;;;8.39;61.25;100681.29;1642930;87;27435;-67
2022/05/16 01:07:40;;;;;;;9.48;5.10;;;;;;;8.35;61.43;100693.19;1642880;87;25713;-67
2022/05/16 01:10:11;;;;;;;13.62;5.22;;;;;;;8.32;61.17;100692.95;1642524;87;25507;-67
2022/05/16 01:12:42;;;;;;;9.43;5.08;;;;;;;8.26;61.56;100692.73;1642878;87;26191;-68
2022/05/16 01:15:13;;;;;;;7.90;4.87;;;;;;;8.21;61.31;100697.09;1642953;87;25754;-69
2022/05/16 01:17:40;;;;;;;9.23;5.47;;;;;;;8.18;61.77;100697.65;1642850;87;27346;-68
2022/05/16 01:20:10;;;;;;;8.53;4.45;;;;;;;8.14;61.36;100698.48;1642835;87;25408;-68
2022/05/16 01:22:45;;;;;;;10.63;4.95;;;;;;;8.11;61.50;100695.03;1642928;87;25623;-69
2022/05/16 01:25:23;;;;;;;9.53;4.80;;;;;;;8.08;61.63;100693.69;1642903;87;25878;-69
2022/05/16 01:28:04;;;;;;;9.95;4.60;;;;;;;8.01;61.85;100696.70;1642584;87;25506;-68
2022/05/16 01:30:31;;;;;;;;;;;;;;;7.96;61.68;100699.99;1644958;87;27679;-70
2022/05/16 01:32:58;;;;;;;7.60;4.90;;;;;;;7.92;62.00;100702.45;1643069;87;25655;-68
2022/05/16 01:35:28;;;;;;;5.90;4.37;;;;;;;7.86;61.92;100704.36;1637389;87;25621;-68
2022/05/16 01:40:41;;;;;;;10.28;4.72;;;;;;;7.78;62.29;100710.36;1632678;87;25658;-68
2022/05/16 01:43:09;;;;;;;7.15;4.50;;;;;;;7.73;62.70;100707.70;1632648;87;27419;-67
2022/05/16 01:45:37;;;;;;;7.97;4.62;;;;;;;7.67;62.55;100708.26;1632561;87;25956;-68
2022/05/16 01:48:04;;;;;;;8.53;4.45;;;;;;;7.62;62.59;100708.29;1632661;87;25518;-69
2022/05/16 01:50:31;;;;;;;8.50;5.30;;;;;;;7.58;62.58;100707.80;1632601;87;25626;-68
2022/05/16 01:52:57;;;;;;;7.80;4.47;;;;;;;7.55;62.23;100711.84;1632729;87;25482;-68
2022/05/16 01:55:23;;;;;;;11.38;4.90;;;;;;;7.51;62.78;100712.14;1632721;87;27428;-68
2022/05/16 01:57:49;;;;;;;9.75;4.92;;;;;;;7.44;62.88;100699.51;1632572;87;25628;-69
2022/05/16 02:00:17;;;;;;;8.03;4.65;;;;;;;7.44;63.08;100711.62;1632663;87;25422;-69
2022/05/16 02:02:45;;;;;;;10.75;4.78;;;;;;;7.39;63.33;100707.61;1632598;87;25616;-68
2022/05/16 02:05:16;;;;;;;9.18;5.03;;;;;;;7.34;63.61;100708.46;1632667;87;25581;-68
2022/05/16 02:07:42;;;;;;;9.25;5.00;;;;;;;7.31;63.36;100709.01;1632320;87;27409;-68
2022/05/16 02:10:12;;;;;;;8.95;4.42;;;;;;;7.28;63.56;100712.25;1632565;87;25582;-68
2022/05/16 02:12:38;;;;;;;12.55;4.58;;;;;;;7.25;63.48;100714.14;1629692;87;25573;-68
2022/05/16 02:15:08;;;;;;;11.50;5.15;;;;;;;7.23;63.44;100714.41;1638900;86;25678;-68
2022/05/16 02:17:37;;;;;;;9.75;4.95;;;;;;;7.21;63.59;100720.61;1634057;87;25685;-69
2022/05/16 02:20:05;;;;;;;10.80;4.90;;;;;;;7.19;63.73;100719.30;1632623;87;27999;-68
2022/05/16 02:25:17;;;;;;;8.88;4.78;;;;;;;7.18;64.42;100727.09;1632628;87;25440;-68
2022/05/16 02:27:45;;;;;;;9.30;5.12;;;;;;;7.17;64.52;100732.19;1632592;87;26380;-67
2022/05/16 02:30:14;;;;;;;8.20;4.78;;;;;;;7.20;64.64;100738.37;1632673;87;25487;-68
2022/05/16 02:32:40;;;;;;;8.63;5.35;;;;;;;7.21;64.94;100732.72;1632582;87;28021;-68
2022/05/16 02:35:08;;;;;;;10.03;4.60;;;;;;;7.22;64.98;100728.96;1634911;87;25579;-67
2022/05/16 02:37:35;;;;;;;8.33;4.67;;;;;;;7.24;65.31;100734.87;1641204;87;25461;-68
2022/05/16 02:40:02;;;;;;;9.93;4.90;;;;;;;7.27;65.34;100730.28;1641234;87;26561;-67
2022/05/16 02:42:28;;;;;;;9.13;5.20;;;;;;;7.30;65.05;100735.64;1641211;87;25487;-67
2022/05/16 02:44:54;;;;;;;6.72;4.42;;;;;;;7.34;65.18;100739.93;1641257;87;27552;-67
2022/05/16 02:47:23;;;;;;;6.40;4.45;;;;;;;7.35;65.32;100742.34;1641327;87;25740;-68
2022/05/16 02:49:51;;;;;;;7.58;4.92;;;;;;;7.37;65.27;100740.20;1641571;87;25490;-68
2022/05/16 02:52:18;;;;;;;8.40;5.05;;;;;;;7.40;65.34;100740.98;1641385;87;25626;-68
2022/05/16 02:54:45;;;;;;;7.33;4.50;;;;;;;7.43;65.58;100745.81;1641510;87;25639;-68
2022/05/16 02:57:12;;;;;;;7.60;5.12;;;;;;;7.44;65.72;100739.88;1641399;87;27345;-69
2022/05/16 02:59:40;;;;;;;8.30;4.67;;;;;;;7.47;65.50;100750.09;1641284;87;25595;-68
2022/05/16 03:02:09;;;;;;;13.62;5.20;;;;;;;7.47;65.59;100750.92;1641368;87;25680;-68
2022/05/16 03:04:37;;;;;;;7.80;4.47;;;;;;;7.51;65.38;100752.52;1641338;87;25612;-68
2022/05/16 03:07:05;;;;;;;8.48;4.17;;;;;;;7.55;65.51;100747.38;1641320;87;25680;-68
2022/05/16 03:09:33;;;;;;;7.87;4.50;;;;;;;7.56;65.75;100744.94;1641378;87;27425;-68
2022/05/16 03:12:01;;;;;;;8.78;4.78;;;;;;;7.57;65.56;100747.91;1641255;87;25582;-68
2022/05/16 03:14:28;;;;;;;9.28;4.78;;;;;;;7.58;65.53;100740.90;1641386;87;25486;-68
2022/05/16 03:16:55;;;;;;;8.70;5.47;;;;;;;7.60;65.40;100740.62;1641326;87;25644;-69
2022/05/16 03:19:21;;;;;;;10.50;4.35;;;;;;;7.61;65.52;100743.05;1618757;87;25459;-69
2022/05/16 03:21:48;;;;;;;11.38;4.40;;;;;;;7.63;65.70;100746.80;1641371;87;27413;-68
2022/05/16 03:24:14;;;;;;;16.62;5.50;;;;;;;7.63;65.78;100744.11;1641216;87;25578;-69
2022/05/16 03:26:41;;;;;;;13.48;5.70;;;;;;;7.63;65.64;100742.77;1641309;87;25659;-69
2022/05/16 03:29:11;;;;;;;11.50;4.72;;;;;;;7.65;65.89;100747.33;1641307;87;25616;-67
2022/05/16 03:31:37;;;;;;;10.90;4.37;;;;;;;7.64;65.77;100749.75;1641281;87;25658;-68
2022/05/16 03:34:03;;;;;;;13.15;4.90;;;;;;;7.65;65.82;100745.98;1641373;87;27352;-68
2022/05/16 03:36:29;;;;;;;12.75;5.22;;;;;;;7.66;66.05;100752.44;1641203;87;25636;-68
2022/05/16 03:41:41;;;;;;;10.03;4.87;;;;;;;7.71;65.88;100743.50;1641356;87;25522;-68
2022/05/16 03:44:08;;;;;;;8.50;4.53;;;;;;;7.74;65.93;100751.03;1641375;87;25611;-68
2022/05/16 03:46:34;;;;;;;13.13;5.12;;;;;;;7.76;65.97;100743.47;1641328;87;27385;-68
2022/05/16 03:49:01;;;;;;;11.15;5.25;;;;;;;7.79;66.09;100740.78;1641227;87;25762;-69
2022/05/16 03:51:27;;;;;;;10.85;4.78;;;;;;;7.81;66.09;100746.69;1641330;87;25467;-68
2022/05/16 03:53:54;;;;;;;12.33;5.35;;;;;;;7.82;66.39;100753.14;1641320;87;26367;-68
2022/05/16 03:56:25;;;;;;;8.93;4.75;;;;;;;7.85;66.51;100757.18;1641371;87;25503;-69
2022/05/16 03:58:52;;;;;;;17.05;5.12;;;;;;;7.84;66.35;100759.05;1641234;87;27332;-68
2022/05/16 04:01:20;;;;;;;10.45;4.10;;;;;;;7.87;66.54;100755.01;1641258;87;25789;-67
2022/05/16 04:03:47;;;;;;;11.50;4.80;;;;;;;7.89;66.52;100752.83;1641398;87;25650;-68
2022/05/16 04:06:14;;;;;;;12.15;5.12;;;;;;;7.92;66.42;100755.52;1641238;87;26218;-67
2022/05/16 04:08:44;;;;;;;15.30;6.28;;;;;;;7.97;66.52;100763.57;1641327;87;25433;-69
2022/05/16 04:11:16;;;;;;;9.38;5.30;;;;;;;7.99;66.69;100758.70;1641322;87;28031;-67
2022/05/16 04:13:43;;;;;;;9.65;4.90;;;;;;;8.02;66.84;100762.19;1641276;87;25686;-68
2022/05/16 04:16:10;;;;;;;7.70;4.53;;;;;;;8.04;66.94;100766.20;1641330;87;25686;-68
2022/05/16 04:18:37;;;;;;;9.05;4.53;;;;;;;8.07;66.91;100767.54;1641328;87;27816;-69
2022/05/16 04:21:05;;;;;;;11.05;4.87;;;;;;;8.14;67.33;100774.76;1641366;87;25699;-69
2022/05/16 04:23:32;;;;;;;8.70;5.50;;;;;;;8.20;67.56;100768.23;1641269;87;28050;-67
2022/05/16 04:25:58;;;;;;;12.25;4.92;;;;;;;8.28;67.92;100770.88;1641219;87;25490;-68
2022/05/16 04:28:25;;;;;;;9.25;4.70;;;;;;;8.39;68.09;100773.77;1641323;87;25459;-68
2022/05/16 04:30:52;;;;;;;8.93;4.80;;;;;;;8.50;68.18;100771.80;1641277;87;26587;-68
2022/05/16 04:33:19;;;;;;;9.28;5.58;;;;;;;8.62;68.23;100779.52;1641362;87;25482;-67
2022/05/16 04:35:46;;;;;;;8.70;4.62;;;;;;;8.74;68.01;100778.59;1641248;87;27440;-68
2022/05/16 04:38:13;;;;;;;14.28;8.25;;;;;;;8.89;68.02;100787.09;1641250;87;25534;-68
2022/05/16 04:43:26;;;;;;;10.53;5.05;;;;;;;9.12;67.47;100778.73;1641292;87;25645;-69
2022/05/16 04:45:52;;;;;;;9.30;4.50;;;;;;;9.26;67.45;100780.75;1641300;87;25617;-68
2022/05/16 04:48:19;;;;;;;8.83;4.42;;;;;;;9.39;67.22;100788.16;1641313;87;27360;-68
2022/05/16 04:50:45;;;;;;;6.62;4.08;;;;;;;9.51;67.13;100787.73;1641240;87;25439;-69
2022/05/16 04:53:11;;;;;;;9.55;4.50;;;;;;;9.64;66.87;100792.99;1641300;87;29695;-70
2022/05/16 04:55:38;;;;;;;8.18;4.42;;;;;;;9.75;66.90;100789.59;1641304;87;26247;-70
2022/05/16 04:58:04;;;;;;;8.80;4.00;;;;;;;9.86;66.62;100797.83;1618780;87;25700;-69
2022/05/16 05:00:31;;;;;;;8.48;4.08;;;;;;;9.95;66.25;100796.06;1641383;87;27361;-69
2022/05/16 05:02:57;;;;;;;8.65;3.83;;;;;;;10.04;66.13;100792.95;1641289;87;25429;-69
2022/05/16 05:05:26;;;;;;;9.75;3.90;;;;;;;10.17;65.99;100790.63;1641345;87;25523;-69
2022/05/16 05:08:27;;;;;;;11.43;4.40;;;;;;;10.35;65.63;100797.13;1821163;77;35053;-68
2022/05/16 05:16:26;;;;;;;12.73;4.40;;;;;;;10.61;65.29;100797.52;1782237;80;25392;-69
2022/05/16 05:18:53;;;;;;;6.40;4.08;;;;;;;10.76;64.78;100798.61;1775433;80;25645;-71
2022/05/16 05:21:21;;;;;;;13.25;4.42;;;;;;;10.85;64.59;100794.66;1782166;79;25694;-69
2022/05/16 05:23:48;;;;;;;12.78;4.12;;;;;;;10.96;64.52;100795.27;1782292;79;25400;-69
2022/05/16 05:26:15;;;;;;;7.47;3.85;;;;;;;11.09;64.50;100797.75;1782215;80;28017;-68
2022/05/16 05:28:41;;;;;;;4.90;3.42;;;;;;;11.21;64.20;100789.37;1781536;80;25666;-69
2022/05/16 05:31:15;;;;;;;8.20;4.00;;;;;;;11.35;63.98;100789.36;1782159;79;25584;-69
2022/05/16 05:33:43;;;;;;;9.15;3.95;;;;;;;11.52;63.65;100789.30;1760295;80;25831;-68
2022/05/16 05:36:12;;;;;;;13.10;3.70;;;;;;;11.67;63.23;100780.06;1781953;80;25704;-69
2022/05/16 05:38:38;;;;;;;6.03;3.35;;;;;;;11.86;62.90;100788.04;1782504;80;26621;-68
2022/05/16 05:41:07;;;;;;;5.25;3.20;;;;;;;12.04;62.83;100789.03;1782122;79;25444;-68
2022/05/16 05:43:34;;;;;;;7.37;3.10;;;;;;;12.23;62.35;100789.66;1782218;80;25673;-68
2022/05/16 05:46:05;;;;;;;7.37;2.92;;;;;;;12.41;62.18;100785.16;1782201;80;25578;-68
2022/05/16 05:48:35;;;;;;;8.95;3.92;;;;;;;12.60;61.68;100784.14;1782314;80;25707;-69
2022/05/16 05:51:03;;;;;;;6.55;2.80;;;;;;;12.77;61.14;100780.72;1782144;79;27648;-68
2022/05/16 05:53:29;;;;;;;3.87;2.35;;;;;;;12.94;60.34;100780.83;1767655;79;25674;-68
2022/05/16 05:55:56;;;;;;;4.85;2.65;;;;;;;13.12;59.89;100782.25;1772420;80;25444;-68
2022/05/16 05:58:23;;;;;;;5.85;3.05;;;;;;;13.26;59.25;100780.20;1777921;80;25757;-69
2022/05/16 06:00:49;;;;;;;6.37;2.42;;;;;;;13.39;58.73;100784.75;1774384;80;25618;-68
2022/05/16 06:03:17;;;;;;;4.47;2.20;;;;;;;13.50;58.61;100787.99;1773866;80;27546;-68
2022/05/16 06:05:44;;;;;;;13.48;3.20;;;;;;;13.63;57.93;100788.39;1771604;80;25682;-68
2022/05/16 06:08:11;;;;;;;5.70;2.10;;;;;;;13.76;57.78;100791.31;1771172;80;25422;-67
2022/05/16 06:10:37;;;;;;;4.75;1.75;;;;;;;13.89;57.47;100787.62;1747654;81;25899;-67
2022/05/16 06:13:04;;;;;;;5.35;3.33;;;;;;;14.05;57.22;100787.17;1771877;81;25663;-67
2022/05/16 06:15:30;;;;;;;9.45;4.47;;;;;;;14.20;56.78;100790.20;1771523;81;27528;-68
2022/05/16 06:17:57;;;;;;;3.90;2.25;;;;;;;14.33;56.24;100787.05;1748584;81;25765;-68
2022/05/16 06:20:24;;;;;;;4.97;2.12;;;;;;;14.50;56.26;100788.16;1743445;80;25607;-68
2022/05/16 06:22:50;;;;;;;6.60;2.72;;;;;;;14.68;55.49;100788.96;1765309;80;25737;-68
2022/05/16 06:25:31;;;;;;;4.42;2.10;;;;;;;14.86;54.86;100791.05;1772873;80;25456;-68
2022/05/16 06:28:09;;;;;;;5.08;1.90;;;;;;;15.03;54.92;100792.34;1771981;80;28453;-67
2022/05/16 06:30:42;;;;;;;7.00;2.47;;;;;;;15.24;54.50;100782.89;1771742;80;25784;-68
2022/05/16 06:33:09;;;;;;;7.03;1.95;;;;;;;15.46;54.18;100779.08;1771562;80;25600;-69
2022/05/16 06:35:37;;;;;;;4.22;1.75;;;;;;;15.68;54.13;100776.61;1786909;80;25638;-68
2022/05/16 06:42:03;;;;;;;;;;;;;;;16.14;52.68;100783.59;1774754;80;26086;-67
2022/05/16 06:44:29;;;;;;;7.92;2.40;;;;;;;16.49;52.27;100785.98;1772227;80;25677;-68
2022/05/16 06:46:56;;;;;;;8.65;2.10;;;;;;;16.74;52.03;100784.69;1771718;80;25546;-67
2022/05/16 06:49:23;;;;;;;5.33;1.70;;;;;;;17.00;51.59;100780.30;1771543;80;25840;-67
2022/05/16 06:51:49;;;;;;;2.98;1.70;;;;;;;17.26;50.83;100788.16;1771604;80;25642;-68
2022/05/16 06:54:16;;;;;;;5.97;1.50;;;;;;;17.49;49.45;100783.02;1771791;80;27579;-67
2022/05/16 06:56:42;;;;;;;4.03;1.27;;;;;;;17.73;48.85;100782.76;1771442;80;25916;-67
2022/05/16 06:59:09;;;;;;;2.60;1.60;;;;;;;17.95;47.84;100774.64;1771611;79;25524;-67
2022/05/16 07:01:35;;;;;;;4.58;1.40;;;;;;;18.21;47.42;100782.39;1771902;79;25646;-67
2022/05/16 07:04:01;;;;;;;4.58;1.20;;;;;;;18.40;46.35;100792.69;1771356;80;25377;-67
2022/05/16 07:06:27;;;;;;;5.20;2.00;;;;;;;18.60;45.61;100794.98;1771928;80;27465;-68
2022/05/16 07:08:54;;;;;;;1.30;0.93;;;;;;;18.83;44.58;100793.86;1762194;80;25774;-68
2022/05/16 07:11:21;;;;;;;3.90;1.20;;;;;;;19.01;43.25;100800.35;1771789;79;25574;-68
2022/05/16 07:13:47;;;;;;;3.58;1.10;;;;;;;19.13;43.51;100793.40;1771952;80;25710;-67
2022/05/16 07:16:14;;;;;;;3.92;1.22;;;;;;;19.34;42.68;100797.80;1772324;80;25472;-68
2022/05/16 07:18:40;;;;;;;6.15;1.42;;;;;;;19.50;42.13;100795.83;1771445;79;27535;-67
2022/05/16 07:21:07;;;;;;;3.33;1.52;;;;;;;19.68;42.01;100796.80;1771871;80;25690;-68
2022/05/16 07:23:34;;;;;;;4.90;1.30;;;;;;;19.93;41.32;100801.48;1772531;79;25649;-68
2022/05/16 07:28:45;;;;;;;2.47;1.30;;;;;;;20.41;40.91;100788.30;1771816;80;25586;-68
2022/05/16 07:31:12;;;;;;;6.08;1.67;;;;;;;20.68;40.41;100796.09;1772292;80;27538;-67
2022/05/16 07:33:38;;;;;;;3.83;1.17;;;;;;;20.89;39.69;100797.61;1771308;80;25821;-67
2022/05/16 07:36:06;;;;;;;5.47;1.57;;;;;;;21.12;39.04;100788.58;1772451;79;26245;-68
2022/05/16 07:38:33;;;;;;;2.30;0.95;;;;;;;21.24;38.38;100803.50;1770226;80;25865;-68
2022/05/16 07:41:00;;;;;;;4.00;1.12;;;;;;;21.51;38.38;100806.29;1771243;80;26316;-67
2022/05/16 07:43:27;;;;;;;1.47;0.98;;;;;;;21.83;37.78;100808.11;1772423;80;28119;-68
2022/05/16 07:45:53;;;;;;;1.92;1.00;;;;;;;22.08;37.43;100801.52;1771680;80;25461;-69
2022/05/16 07:48:20;;;;;;;3.55;0.95;;;;;;;22.30;36.12;100803.19;1771448;80;25733;-69
2022/05/16 07:50:48;;;;;;;4.28;1.00;;;;;;;22.46;35.37;100812.59;1771882;80;25559;-69
2022/05/16 07:53:16;;;;;;;3.35;0.80;;;;;;;22.51;34.59;100808.94;1772157;80;25612;-69
2022/05/16 07:55:46;;;;;;;2.15;0.78;;;;;;;22.52;34.04;100809.13;1761991;80;27528;-68
2022/05/16 07:58:13;;;;;;;2.80;0.98;;;;;;;22.70;34.56;100809.91;1772285;80;25526;-68
2022/05/16 08:00:41;;;;;;;2.98;0.90;;;;;;;22.93;33.94;100808.33;1771696;80;25428;-68
2022/05/16 08:03:13;;;;;;;1.20;0.82;;;;;;;23.16;33.17;100817.81;1771286;80;25372;-68
2022/05/16 08:05:41;;;;;;;2.12;0.70;;;;;;;23.38;32.87;100816.00;1772016;80;25441;-68
2022/05/16 08:10:57;;;;;;;3.17;0.70;;;;;;;23.87;31.92;100815.31;1771817;80;26058;-68
2022/05/16 08:13:26;;;;;;;0.75;0.45;;;;;;;24.01;30.54;100813.23;1772133;80;26851;-68
2022/05/16 08:15:53;;;;;;;2.72;0.55;;;;;;;24.14;29.83;100813.66;1771739;80;25621;-68
2022/05/16 08:18:20;;;;;;;1.15;0.65;;;;;;;24.33;29.62;100803.66;1771593;80;26034;-67
2022/05/16 08:20:50;;;;;;;1.95;0.80;;;;;;;24.59;29.53;100800.39;1772930;80;27505;-68
2022/05/16 08:23:21;;;;;;;2.40;1.00;;;;;;;24.85;28.96;100800.59;1762785;80;25614;-68
2022/05/16 08:25:48;;;;;;;2.27;1.37;;;;;;;25.08;28.54;100798.02;1772373;79;25440;-69
2022/05/16 08:28:16;;;;;;;0.68;0.60;;;;;;;25.25;27.80;100804.72;1771804;80;25511;-68
2022/05/16 08:30:42;;;;;;;2.75;1.20;;;;;;;25.45;27.36;100798.20;1771425;80;25593;-68
2022/05/16 08:33:10;;;;;;;2.90;1.25;;;;;;;25.70;26.56;100796.76;1771297;80;27506;-68
2022/05/16 08:35:36;;;;;;;2.80;1.10;;;;;;;25.76;26.97;100797.13;1772309;80;25813;-68
2022/05/16 08:41:06;;;;;;;1.62;1.10;;;;;;;25.88;27.06;100804.98;1771914;80;26135;-68
2022/05/16 08:44:14;;;;;;;3.17;1.05;;;;;;;26.11;26.70;100798.98;1771625;80;25615;-68
2022/05/16 08:46:47;;;;;;;2.50;0.75;;;;;;;26.31;26.40;100798.51;1739088;81;27487;-68
2022/05/16 08:49:25;;;;;;;4.08;0.98;;;;;;;26.48;26.33;100794.83;1740244;81;25372;-68
2022/05/16 08:51:59;;;;;;;1.12;0.53;;;;;;;26.56;25.63;100799.72;1739429;81;25393;-68
2022/05/16 08:54:45;;;;;;;4.30;0.90;;;;;;;26.67;25.15;100803.85;1737599;81;25578;-68
2022/05/16 08:57:17;;;;;;;1.85;0.70;;;;;;;26.79;24.88;100796.42;1737492;82;25654;-69
2022/05/16 08:59:48;;;;;;;0.90;0.70;;;;;;;26.82;24.03;100808.09;1740222;81;28213;-69
2022/05/16 09:02:24;;;;;;;2.87;0.80;;;;;;;26.93;24.13;100796.90;1740510;81;26034;-69
2022/05/16 09:05:21;;;;;;;2.45;0.75;;;;;;;27.13;23.25;100792.96;1737808;82;25555;-69
2022/05/16 09:07:54;;;;;;;4.05;1.30;;;;;;;27.12;23.29;100792.16;1740767;82;25453;-68
2022/05/16 09:10:46;;;;;;;2.08;0.80;;;;;;;27.23;23.57;100799.02;1728665;82;25651;-70
2022/05/16 09:13:32;;;;;;;1.27;0.88;;;;;;;27.35;23.78;100801.91;1736444;82;28366;-70
2022/05/16 09:16:13;;;;;;;1.40;0.80;;;;;;;27.40;22.92;100802.84;1740347;82;25662;-70
2022/05/16 09:19:00;;;;;;;2.40;0.80;;;;;;;27.31;22.96;100808.88;1736885;81;25877;-69
2022/05/16 09:21:40;;;;;;;1.60;0.95;;;;;;;27.52;22.72;100800.92;1737853;81;25735;-70
2022/05/16 09:24:40;;;;;;;6.00;2.65;;;;;;;27.74;22.33;100802.08;1738555;82;25663;-69
2022/05/16 09:30:10;;;;;;;4.78;1.12;;;;;;;27.95;22.08;100797.66;1739161;82;25890;-68
2022/05/16 09:32:41;;;;;;;1.62;1.07;;;;;;;28.26;22.34;100795.47;1738428;81;25679;-68
2022/05/16 09:35:30;;;;;;;3.25;0.90;;;;;;;28.43;21.97;100793.03;1738616;82;26154;-68
2022/05/16 09:37:58;;;;;;;3.62;0.90;;;;;;;28.61;21.26;100796.97;1741090;82;25646;-68
2022/05/16 09:40:28;;;;;;;;;;;;;;;28.73;20.98;100784.47;1742958;82;27451;-68
2022/05/16 09:42:54;;;;;;;1.45;0.45;;;;;;;28.75;20.15;100788.22;1738187;81;25590;-68
2022/05/16 09:45:28;;;;;;;3.10;0.80;;;;;;;28.87;20.55;100782.83;1740633;82;25648;-69
2022/05/16 09:47:54;;;;;;;2.15;0.70;;;;;;;29.07;20.56;100789.06;1740548;82;26094;-70
2022/05/16 09:50:30;;;;;;;2.15;0.80;;;;;;;29.36;20.06;100787.19;1739115;82;25566;-70
2022/05/16 09:53:09;;;;;;;2.45;0.70;;;;;;;29.56;19.24;100782.41;1737189;82;27864;-69
2022/05/16 09:55:55;;;;;;;5.12;1.12;;;;;;;29.67;19.15;100780.80;1739130;81;25692;-70
2022/05/16 09:58:25;;;;;;;1.85;0.85;;;;;;;29.72;18.68;100776.11;1737946;81;25670;-69
2022/05/16 10:01:05;;;;;;;2.85;1.15;;;;;;;29.64;19.24;100796.20;1740388;81;25639;-73
2022/05/16 10:03:43;;;;;;;6.62;1.77;;;;;;;29.68;19.12;100793.53;1741473;81;25648;-71
2022/05/16 10:06:30;;;;;;;4.30;1.00;;;;;;;29.77;18.82;100786.78;1738230;81;27489;-71
2022/05/16 10:09:04;;;;;;;1.87;0.78;;;;;;;29.82;18.97;100780.55;1741203;81;25807;-71
2022/05/16 10:11:33;;;;;;;3.12;1.22;;;;;;;29.83;18.74;100785.70;1739091;81;25687;-73
2022/05/16 10:14:00;;;;;;;9.08;0.70;;;;;;;29.96;18.51;100795.56;1729121;82;26079;-72
2022/05/16 10:16:29;;;;;;;1.98;0.60;;;;;;;29.98;18.47;100798.11;1728889;82;25650;-73
2022/05/16 10:19:12;;;;;;;1.37;0.68;;;;;;;30.14;17.85;100794.58;1741459;81;27425;-72
2022/05/16 10:22:01;;;;;;;2.17;0.70;;;;;;;30.17;17.63;100788.73;1741428;81;25397;-71
2022/05/16 10:24:35;;;;;;;0.55;0.42;;;;;;;30.32;17.42;100790.59;1740879;81;34839;-70
2022/05/16 10:27:06;;;;;;;1.47;0.60;;;;;;;30.56;17.27;100790.48;1740974;82;25722;-72
2022/05/16 10:29:38;;;;;;;3.15;0.80;;;;;;;30.69;17.12;100787.95;1718968;82;25703;-74
2022/05/16 10:35:11;;;;;;;2.12;0.57;;;;;;;30.93;16.81;100786.98;1739944;82;25533;-72
2022/05/16 10:37:42;;;;;;;2.80;0.50;;;;;;;30.89;16.76;100787.85;1740004;82;25212;-72
2022/05/16 10:40:17;;;;;;;1.65;0.47;;;;;;;31.03;16.64;100792.94;1740176;81;25329;-73
2022/05/16 10:43:12;;;;;;;0.65;0.40;;;;;;;31.08;16.57;100789.61;1741609;81;25679;-73
2022/05/16 10:45:44;;;;;;;1.17;0.40;;;;;;;31.04;16.22;100780.52;1743042;81;28054;-72
2022/05/16 10:48:18;;;;;;;3.85;1.00;;;;;;;31.19;16.49;100780.94;1741149;81;25282;-71
2022/05/16 10:51:07;;;;;;;0.82;0.57;;;;;;;31.37;16.42;100786.05;1742228;81;25211;-71
2022/05/16 10:53:42;;;;;;;0.68;0.40;;;;;;;31.47;15.75;100768.20;1742461;81;25491;-71
2022/05/16 10:56:42;;;;;;;1.30;0.50;;;;;;;31.43;15.88;100774.48;1739662;81;25484;-72
2022/05/16 10:59:36;;;;;;;1.60;0.40;;;;;;;31.47;15.69;100773.79;1741030;82;27508;-74
2022/05/16 11:02:34;;;;;;;2.17;1.05;;;;;;;31.42;15.70;100775.73;1737470;81;25659;-75
2022/05/16 11:05:39;;;;;;;0.97;0.50;;;;;;;31.49;15.72;100761.55;1738031;81;25542;-74
2022/05/16 11:08:20;;;;;;;2.15;0.50;;;;;;;31.41;15.48;100765.14;1718841;82;25667;-74
2022/05/16 11:11:25;;;;;;;0.55;0.40;;;;;;;31.18;15.35;100764.02;1714858;83;25673;-73
2022/05/16 11:14:17;;;;;;;1.10;0.57;;;;;;;31.06;15.26;100764.91;1712256;83;27683;-66
2022/05/16 11:16:44;;;;;;;2.52;0.62;;;;;;;31.07;15.44;100762.30;1712865;83;26080;-65
2022/05/16 11:19:37;;;;;;;2.02;0.53;;;;;;;31.13;15.42;100749.97;1713481;83;25531;-66
2022/05/16 11:22:21;;;;;;;2.25;1.32;;;;;;;31.30;15.26;100740.92;1714027;83;26278;-65
2022/05/16 11:25:11;;;;;;;0.60;0.60;;;;;;;31.27;15.77;100751.58;1714256;83;25671;-67
2022/05/16 11:28:18;;;;;;;1.92;1.20;;;;;;;31.34;15.61;100741.59;1714857;83;27053;-66
2022/05/16 11:30:55;;;;;;;0.70;0.40;;;;;;;31.43;15.40;100743.74;1714866;82;25675;-67
2022/05/16 11:33:52;;;;;;;1.32;0.42;;;;;;;31.37;15.14;100723.95;1714481;83;25723;-65
2022/05/16 11:36:35;;;;;;;1.12;0.60;;;;;;;31.42;15.23;100725.42;1714551;83;25747;-67
2022/05/16 11:39:09;;;;;;;0.65;0.33;;;;;;;31.49;15.18;100721.02;1714188;81;25659;-67
2022/05/16 11:41:47;;;;;;;0.85;0.40;;;;;;;31.58;14.87;100725.36;1714369;83;27489;-68
2022/05/16 11:44:40;;;;;;;2.87;0.60;;;;;;;31.64;14.95;100713.03;1731312;82;25791;-68
2022/05/16 11:47:20;;;;;;;0.50;0.45;;;;;;;31.71;14.62;100718.41;1739877;81;25393;-65
2022/05/16 11:49:52;;;;;;;3.45;0.65;;;;;;;31.84;14.68;100721.20;1740225;82;26513;-66
2022/05/16 11:52:32;;;;;;;1.25;0.78;;;;;;;31.91;14.78;100720.20;1739486;82;25666;-66
2022/05/16 12:00:59;;;;;;;0.98;0.50;;;;;;;31.42;14.45;100707.27;1740291;81;25734;-66
2022/05/16 12:03:42;;;;;;;1.05;0.88;;;;;;;31.40;14.32;100699.31;1738200;82;26269;-65
2022/05/16 12:06:38;;;;;;;2.58;0.45;;;;;;;31.36;14.43;100690.86;1740678;82;25543;-66
2022/05/16 12:09:23;;;;;;;0.78;0.60;;;;;;;31.34;14.65;100694.72;1736473;81;27557;-65
2022/05/16 12:12:10;;;;;;;2.65;0.90;;;;;;;31.12;14.42;100697.33;1739617;82;25387;-66
2022/05/16 12:14:42;;;;;;;3.83;0.50;;;;;;;31.00;14.67;100693.27;1705008;84;25714;-66
2022/05/16 12:17:19;;;;;;;1.77;0.60;;;;;;;30.97;14.72;100691.34;1706597;84;26046;-67
2022/05/16 12:19:53;;;;;;;1.75;0.40;;;;;;;31.09;14.90;100692.80;1693604;84;25466;-65
2022/05/16 12:22:40;;;;;;;2.27;0.47;;;;;;;31.09;14.90;100692.80;1692810;84;27582;-66
2022/05/16 12:25:29;;;;;;;0.95;0.40;;;;;;;31.15;14.71;100692.27;1692969;84;26174;-66
2022/05/16 12:28:23;;;;;;;2.47;0.57;;;;;;;31.04;14.83;100693.34;1693732;84;25734;-67
2022/05/16 12:30:58;;;;;;;2.42;0.85;;;;;;;31.23;14.78;100689.44;1675328;84;25650;-68